Terminal Aerodrome Forecast
Issued by NWS Central Illinois

Home | Current Version | Previous Version | Text Only | Print | Product List | Glossary On
Versions: 1 2 3 4 5 6 7 8 9 10 11 12 13 14 15 16 17 18 19 20 21 22 23 24 25 26
000
FTUS43 KILX 262300
TAFSPI
TAF
KSPI 262326Z 2700/2724 32010KT P6SM SCT050 BKN200
     FM270500 34005KT P6SM SCT025 BKN100
     FM271400 35010G18KT P6SM SCT050=

USA.gov is the U.S. government's official web portal to all federal, state and local government web resources and services.